createdAt,value
2023-06-21T00:01:06.977Z,22.50
2023-06-21T00:03:35.179Z,22.53
2023-06-21T00:06:03.275Z,22.38
2023-06-21T00:08:30.922Z,22.29
2023-06-21T00:10:58.870Z,22.23
2023-06-21T00:13:26.550Z,22.35
2023-06-21T00:15:54.228Z,22.10
2023-06-21T00:18:22.251Z,22.24
2023-06-21T00:20:49.860Z,22.27
2023-06-21T00:23:17.504Z,22.26
2023-06-21T00:25:45.459Z,22.27
2023-06-21T00:28:13.426Z,22.18
2023-06-21T00:30:41.175Z,22.13
2023-06-21T00:33:09.265Z,22.18
2023-06-21T00:35:36.992Z,22.18
2023-06-21T00:38:04.644Z,22.23
2023-06-21T00:40:35.671Z,22.27
2023-06-21T00:43:03.842Z,22.11
2023-06-21T00:45:33.062Z,22.19
2023-06-21T00:48:00.981Z,22.09
2023-06-21T00:50:28.928Z,22.24
2023-06-21T00:52:57.253Z,22.05
2023-06-21T00:55:25.412Z,22.21
2023-06-21T00:57:53.782Z,22.00
2023-06-21T01:00:21.872Z,22.08
2023-06-21T01:02:54.876Z,22.05
2023-06-21T01:05:25.672Z,22.15
2023-06-21T01:08:07.916Z,21.97
2023-06-21T01:11:03.243Z,21.96
2023-06-21T01:13:49.109Z,21.97
2023-06-21T01:16:18.626Z,21.76
2023-06-21T01:18:47.395Z,21.82
2023-06-21T01:21:17.504Z,21.61
2023-06-21T01:24:06.805Z,21.75
2023-06-21T01:26:49.630Z,21.67
2023-06-21T01:29:44.427Z,21.64
2023-06-21T01:32:12.489Z,21.51
2023-06-21T01:34:40.971Z,21.51
2023-06-21T01:37:08.717Z,21.46
2023-06-21T01:39:36.335Z,21.40
2023-06-21T01:42:06.602Z,21.33
2023-06-21T01:44:34.711Z,21.40
2023-06-21T01:47:03.159Z,21.36
2023-06-21T01:49:31.490Z,21.51
2023-06-21T01:51:59.700Z,21.49
2023-06-21T01:54:28.085Z,21.45
2023-06-21T01:56:59.572Z,21.37
2023-06-21T01:59:31.570Z,21.44
2023-06-21T02:02:01.924Z,21.43
2023-06-21T02:04:30.067Z,21.30
2023-06-21T02:06:57.885Z,21.21
2023-06-21T02:09:26.040Z,21.29
2023-06-21T02:11:54.066Z,21.28
2023-06-21T02:14:22.327Z,21.17
2023-06-21T02:16:50.047Z,21.10
2023-06-21T02:19:18.733Z,21.18
2023-06-21T02:21:46.561Z,21.19
2023-06-21T02:24:15.508Z,21.23
2023-06-21T02:26:43.538Z,21.24
2023-06-21T02:29:12.445Z,21.22
2023-06-21T02:31:40.410Z,21.05
2023-06-21T02:34:08.713Z,20.98
2023-06-21T02:36:36.802Z,20.94
2023-06-21T02:39:07.210Z,20.95
2023-06-21T02:41:35.188Z,20.90
2023-06-21T02:44:03.057Z,20.84
2023-06-21T02:46:32.386Z,20.84
2023-06-21T02:49:00.799Z,20.94
2023-06-21T02:51:28.481Z,20.97
2023-06-21T02:53:56.142Z,20.83
2023-06-21T02:56:24.122Z,20.72
2023-06-21T02:58:51.860Z,20.84
2023-06-21T03:01:19.628Z,20.73
2023-06-21T03:03:47.715Z,20.70
2023-06-21T03:06:15.524Z,20.74
2023-06-21T03:08:43.225Z,20.78
2023-06-21T03:11:11.149Z,20.88
2023-06-21T03:16:07.632Z,20.81
2023-06-21T03:18:35.774Z,20.67
2023-06-21T03:21:03.878Z,20.59
2023-06-21T03:23:32.063Z,20.67
2023-06-21T03:26:00.329Z,20.56
2023-06-21T03:28:28.140Z,20.52
2023-06-21T03:30:56.994Z,20.70
2023-06-21T03:33:25.145Z,20.54
2023-06-21T03:35:53.838Z,20.64
2023-06-21T03:38:21.557Z,20.59
2023-06-21T03:40:49.546Z,20.65
2023-06-21T03:43:17.315Z,20.59
2023-06-21T03:45:45.498Z,20.72
2023-06-21T03:48:13.485Z,20.84
2023-06-21T03:50:41.133Z,20.90
2023-06-21T03:53:09.205Z,20.75
2023-06-21T03:55:37.135Z,20.80
2023-06-21T03:58:06.564Z,20.81
2023-06-21T04:00:34.208Z,20.81
2023-06-21T04:03:03.485Z,20.77
2023-06-21T04:05:31.264Z,20.90
2023-06-21T04:07:58.814Z,20.98
2023-06-21T04:10:27.109Z,20.95
2023-06-21T04:12:58.558Z,21.12
2023-06-21T04:15:26.615Z,21.08
2023-06-21T04:17:54.333Z,21.09
2023-06-21T04:20:22.116Z,21.14
2023-06-21T04:22:50.042Z,21.29
2023-06-21T04:25:17.749Z,21.15
2023-06-21T04:27:45.427Z,21.11
2023-06-21T04:30:13.684Z,21.19
2023-06-21T04:32:41.526Z,21.16
2023-06-21T04:35:09.324Z,21.11
2023-06-21T04:37:37.249Z,21.24
2023-06-21T04:40:16.445Z,21.32
2023-06-21T04:42:49.094Z,21.38
2023-06-21T04:45:17.513Z,21.25
2023-06-21T04:47:46.016Z,21.31
2023-06-21T04:52:45.209Z,21.46
2023-06-21T04:55:12.866Z,21.42
2023-06-21T04:57:40.418Z,21.72
2023-06-21T05:00:08.933Z,21.69
2023-06-21T05:02:36.655Z,21.80
2023-06-21T05:05:04.529Z,22.01
2023-06-21T05:07:32.509Z,21.92
2023-06-21T05:10:00.087Z,21.91
2023-06-21T05:12:27.786Z,21.95
2023-06-21T05:14:55.769Z,22.04
2023-06-21T05:17:23.472Z,22.04
2023-06-21T05:19:51.169Z,22.17
2023-06-21T05:22:19.165Z,22.05
2023-06-21T05:24:46.969Z,22.03
2023-06-21T05:27:14.787Z,22.04
2023-06-21T05:29:42.707Z,22.22
2023-06-21T05:32:10.217Z,22.41
2023-06-21T05:34:37.920Z,22.62
2023-06-21T05:37:05.958Z,22.67
2023-06-21T05:39:33.736Z,22.71
2023-06-21T05:42:01.490Z,22.77
2023-06-21T05:44:29.431Z,22.97
2023-06-21T05:46:57.056Z,23.06
2023-06-21T05:49:24.658Z,23.13
2023-06-21T05:51:52.685Z,23.22
2023-06-21T05:54:20.411Z,23.09
2023-06-21T05:56:48.074Z,23.26
2023-06-21T05:59:17.676Z,23.34
2023-06-21T06:01:47.856Z,23.37
2023-06-21T06:04:16.761Z,23.46
2023-06-21T06:06:44.505Z,23.39
2023-06-21T06:09:12.427Z,23.36
2023-06-21T06:11:40.534Z,23.51
2023-06-21T06:14:10.422Z,23.52
2023-06-21T06:16:39.525Z,23.64
2023-06-21T06:19:07.506Z,23.88
2023-06-21T06:21:35.135Z,23.85
2023-06-21T06:24:02.996Z,24.10
2023-06-21T06:26:30.962Z,23.99
2023-06-21T06:28:58.614Z,24.22
2023-06-21T06:31:27.830Z,24.30
2023-06-21T06:33:55.779Z,24.32
2023-06-21T06:36:23.626Z,24.38
2023-06-21T06:38:52.373Z,24.40
2023-06-21T06:41:20.622Z,24.44
2023-06-21T06:43:48.349Z,24.42
2023-06-21T06:46:16.141Z,24.60
2023-06-21T06:48:44.179Z,24.62
2023-06-21T06:51:11.899Z,24.78
2023-06-21T06:53:39.614Z,24.84
2023-06-21T06:56:07.597Z,24.82
2023-06-21T06:58:35.342Z,24.80
2023-06-21T07:01:03.867Z,24.97
2023-06-21T07:03:32.701Z,25.14
2023-06-21T07:06:00.709Z,25.29
2023-06-21T07:08:28.815Z,25.33
2023-06-21T07:10:56.861Z,25.47
2023-06-21T07:13:24.503Z,25.64
2023-06-21T07:15:52.285Z,25.64
2023-06-21T07:18:20.233Z,25.77
2023-06-21T07:20:48.023Z,25.84
2023-06-21T07:23:15.699Z,25.92
2023-06-21T07:25:43.799Z,25.83
2023-06-21T07:28:11.544Z,26.08
2023-06-21T07:30:40.639Z,25.98
2023-06-21T07:33:08.623Z,26.30
2023-06-21T07:35:36.581Z,26.40
2023-06-21T07:38:04.328Z,26.56
2023-06-21T07:40:32.276Z,26.73
2023-06-21T07:43:02.401Z,26.93
2023-06-21T07:45:30.117Z,26.99
2023-06-21T07:47:58.359Z,27.17
2023-06-21T07:50:25.992Z,27.12
2023-06-21T07:52:53.756Z,27.30
2023-06-21T07:55:22.073Z,27.57
2023-06-21T07:57:49.900Z,27.53
2023-06-21T08:00:17.908Z,27.59
2023-06-21T08:02:46.228Z,27.66
2023-06-21T08:05:13.982Z,27.62
2023-06-21T08:07:41.804Z,27.69
2023-06-21T08:10:10.684Z,28.04
2023-06-21T08:12:38.657Z,28.20
2023-06-21T08:15:07.158Z,28.41
2023-06-21T08:17:35.206Z,28.55
2023-06-21T08:22:38.995Z,28.68
2023-06-21T08:25:07.195Z,28.54
2023-06-21T08:27:34.899Z,28.92
2023-06-21T08:30:02.674Z,29.13
2023-06-21T08:32:30.810Z,29.38
2023-06-21T08:34:58.386Z,29.54
2023-06-21T08:37:25.963Z,29.54
2023-06-21T08:39:54.500Z,29.92
2023-06-21T08:42:23.757Z,29.78
2023-06-21T08:44:52.442Z,30.11
2023-06-21T08:47:22.435Z,29.84
2023-06-21T08:49:52.029Z,29.85
2023-06-21T08:52:22.060Z,29.64
2023-06-21T08:54:59.136Z,29.88
2023-06-21T08:57:28.968Z,29.93
2023-06-21T09:00:06.829Z,30.06
2023-06-21T09:02:54.019Z,30.00
2023-06-21T09:05:34.687Z,29.50
2023-06-21T09:08:07.424Z,29.63
2023-06-21T09:10:37.992Z,30.02
2023-06-21T09:13:07.487Z,30.16
2023-06-21T09:15:35.717Z,30.10
2023-06-21T09:18:03.696Z,30.42
2023-06-21T09:20:32.130Z,30.67
2023-06-21T09:23:00.778Z,30.63
2023-06-21T09:25:28.484Z,30.29
2023-06-21T09:27:56.441Z,30.35
2023-06-21T09:30:37.173Z,30.54
2023-06-21T09:33:06.117Z,31.12
2023-06-21T09:35:33.905Z,31.10
2023-06-21T09:38:01.688Z,30.90
2023-06-21T09:40:41.401Z,31.38
2023-06-21T09:43:08.998Z,31.21
2023-06-21T09:45:37.063Z,30.81
2023-06-21T09:48:04.765Z,30.91
2023-06-21T09:50:45.174Z,31.26
2023-06-21T09:53:13.047Z,31.81
2023-06-21T09:55:44.713Z,31.73
2023-06-21T09:58:12.397Z,31.64
2023-06-21T10:00:40.279Z,31.93
2023-06-21T10:03:08.336Z,32.37
2023-06-21T10:05:36.103Z,32.55
2023-06-21T10:08:05.423Z,32.32
2023-06-21T10:10:33.999Z,31.85
2023-06-21T10:13:01.708Z,31.75
2023-06-21T10:15:30.614Z,31.74
2023-06-21T10:18:05.422Z,31.44
2023-06-21T10:20:35.161Z,31.69
2023-06-21T10:23:03.506Z,31.99
2023-06-21T10:25:31.739Z,31.91
2023-06-21T10:28:00.171Z,31.45
2023-06-21T10:30:30.572Z,31.39
2023-06-21T10:32:59.106Z,31.56
2023-06-21T10:35:29.174Z,31.84
2023-06-21T10:38:02.704Z,32.33
2023-06-21T10:40:31.434Z,32.05
2023-06-21T10:42:59.832Z,31.70
2023-06-21T10:45:27.871Z,31.14
2023-06-21T10:47:55.792Z,31.81
2023-06-21T10:50:25.038Z,31.57
2023-06-21T10:52:54.717Z,31.34
2023-06-21T10:55:22.430Z,31.39
2023-06-21T10:57:55.235Z,31.58
2023-06-21T11:00:24.114Z,31.46
2023-06-21T11:02:52.925Z,31.29
2023-06-21T11:05:21.581Z,31.32
2023-06-21T11:07:57.217Z,31.13
2023-06-21T11:10:47.217Z,31.18
2023-06-21T11:13:15.555Z,31.67
2023-06-21T11:15:47.856Z,31.48
2023-06-21T11:18:19.245Z,31.93
2023-06-21T11:20:57.670Z,31.20
2023-06-21T11:23:26.523Z,31.30
2023-06-21T11:26:14.408Z,30.90
2023-06-21T11:28:49.790Z,30.58
2023-06-21T11:31:24.443Z,30.35
2023-06-21T11:33:53.600Z,30.48
2023-06-21T11:36:28.818Z,30.50
2023-06-21T11:39:06.695Z,30.27
2023-06-21T11:41:46.777Z,30.19
2023-06-21T11:44:14.801Z,30.90
2023-06-21T11:46:42.800Z,30.85
2023-06-21T11:49:10.476Z,30.50
2023-06-21T11:51:50.171Z,30.54
2023-06-21T11:54:31.646Z,31.59
2023-06-21T11:56:59.366Z,31.75
2023-06-21T11:59:27.618Z,32.10
2023-06-21T12:01:55.247Z,32.10
2023-06-21T12:04:29.471Z,32.10
2023-06-21T12:06:57.162Z,31.64
2023-06-21T12:09:25.239Z,32.19
2023-06-21T12:11:52.848Z,31.69
2023-06-21T12:14:20.627Z,32.45
2023-06-21T12:16:50.809Z,31.95
2023-06-21T12:19:18.637Z,32.32
2023-06-21T12:21:46.327Z,31.78
2023-06-21T12:24:14.741Z,32.23
2023-06-21T12:26:48.949Z,32.99
2023-06-21T12:29:17.091Z,32.95
2023-06-21T12:31:44.843Z,33.13
2023-06-21T12:34:18.848Z,33.25
2023-06-21T12:36:47.271Z,33.20
2023-06-21T12:39:15.469Z,32.41
2023-06-21T12:41:43.924Z,32.51
2023-06-21T12:44:23.014Z,32.45
2023-06-21T12:46:52.023Z,32.36
2023-06-21T12:49:20.021Z,32.52
2023-06-21T12:51:48.360Z,32.35
2023-06-21T12:54:17.931Z,32.23
2023-06-21T12:56:50.972Z,32.19
2023-06-21T12:59:18.843Z,32.79
2023-06-21T13:01:46.897Z,32.14
2023-06-21T13:04:16.000Z,32.80
2023-06-21T13:06:43.998Z,33.12
2023-06-21T13:09:12.736Z,33.69
2023-06-21T13:11:40.457Z,34.17
2023-06-21T13:14:08.341Z,34.49
2023-06-21T13:16:36.443Z,34.72
2023-06-21T13:19:04.290Z,35.10
2023-06-21T13:21:32.167Z,34.59
2023-06-21T13:24:00.414Z,34.74
2023-06-21T13:26:28.609Z,34.87
2023-06-21T13:28:56.308Z,35.11
2023-06-21T13:31:25.189Z,34.67
2023-06-21T13:33:53.556Z,34.50
2023-06-21T13:36:21.356Z,34.92
2023-06-21T13:38:49.365Z,34.11
2023-06-21T13:41:16.952Z,33.68
2023-06-21T13:43:44.544Z,33.73
2023-06-21T13:46:12.677Z,33.98
2023-06-21T13:48:40.537Z,33.34
2023-06-21T13:51:08.178Z,34.84
2023-06-21T13:53:36.071Z,34.53
2023-06-21T13:56:04.008Z,35.50
2023-06-21T13:58:31.569Z,34.82
2023-06-21T14:00:59.532Z,35.05
2023-06-21T14:03:27.785Z,35.53
2023-06-21T14:05:55.511Z,35.32
2023-06-21T14:08:23.308Z,35.89
2023-06-21T14:10:51.277Z,35.58
2023-06-21T14:13:20.700Z,35.78
2023-06-21T14:15:50.140Z,34.91
2023-06-21T14:18:18.656Z,35.52
2023-06-21T14:20:46.571Z,36.36
2023-06-21T14:23:14.277Z,35.78
2023-06-21T14:25:42.347Z,35.23
2023-06-21T14:28:10.076Z,35.10
2023-06-21T14:30:37.805Z,33.73
2023-06-21T14:33:07.756Z,33.82
2023-06-21T14:35:36.465Z,35.13
2023-06-21T14:38:04.406Z,34.90
2023-06-21T14:40:32.335Z,35.07
2023-06-21T14:42:59.965Z,35.10
2023-06-21T14:45:27.826Z,34.78
2023-06-21T14:47:56.042Z,35.58
2023-06-21T14:50:24.565Z,35.87
2023-06-21T14:52:52.146Z,35.69
2023-06-21T14:55:20.210Z,36.64
2023-06-21T14:57:47.895Z,35.65
2023-06-21T15:00:15.903Z,34.13
2023-06-21T15:02:43.954Z,35.04
2023-06-21T15:05:11.762Z,36.09
2023-06-21T15:07:46.540Z,35.47
2023-06-21T15:10:14.487Z,35.38
2023-06-21T15:12:56.188Z,35.83
2023-06-21T15:15:28.693Z,36.32
2023-06-21T15:17:56.676Z,35.48
2023-06-21T15:20:24.388Z,35.66
2023-06-21T15:22:52.396Z,34.95
2023-06-21T15:25:20.150Z,35.45
2023-06-21T15:27:47.985Z,35.22
2023-06-21T15:30:16.051Z,34.98
2023-06-21T15:32:44.473Z,34.81
2023-06-21T15:35:12.163Z,34.18
2023-06-21T15:37:40.062Z,34.55
2023-06-21T15:40:08.633Z,33.46
2023-06-21T15:42:37.226Z,33.47
2023-06-21T15:45:06.121Z,34.80
2023-06-21T15:47:33.946Z,35.13
2023-06-21T15:50:01.892Z,35.39
2023-06-21T15:52:29.855Z,35.22
2023-06-21T15:54:57.462Z,35.33
2023-06-21T15:57:25.112Z,34.39
2023-06-21T15:59:53.027Z,35.22
2023-06-21T16:02:20.750Z,35.00
2023-06-21T16:10:31.533Z,34.63
2023-06-21T16:12:59.924Z,34.41
2023-06-21T16:15:28.247Z,34.60
2023-06-21T16:17:56.189Z,34.28
2023-06-21T16:20:24.607Z,34.44
2023-06-21T16:22:52.358Z,34.38
2023-06-21T16:25:20.294Z,33.65
2023-06-21T16:27:48.399Z,34.02
2023-06-21T16:30:15.964Z,33.81
2023-06-21T16:32:43.608Z,34.19
2023-06-21T16:35:11.645Z,33.75
2023-06-21T16:37:39.257Z,33.97
2023-06-21T16:40:09.964Z,33.73
2023-06-21T16:42:38.385Z,33.37
2023-06-21T16:45:06.296Z,33.33
2023-06-21T16:47:33.999Z,33.47
2023-06-21T16:50:02.080Z,32.76
2023-06-21T16:52:34.798Z,32.87
2023-06-21T16:55:04.465Z,33.05
2023-06-21T16:57:37.889Z,32.92
2023-06-21T17:00:09.527Z,32.42
2023-06-21T17:02:37.374Z,31.82
2023-06-21T17:05:05.442Z,31.60
2023-06-21T17:07:33.412Z,31.89
2023-06-21T17:10:01.169Z,31.84
2023-06-21T17:12:28.897Z,31.64
2023-06-21T17:14:56.870Z,31.23
2023-06-21T17:17:24.547Z,30.89
2023-06-21T17:19:52.189Z,31.01
2023-06-21T17:22:20.122Z,31.09
2023-06-21T17:24:47.836Z,30.95
2023-06-21T17:27:18.165Z,31.43
2023-06-21T17:29:46.999Z,31.07
2023-06-21T17:32:15.012Z,30.54
2023-06-21T17:34:43.180Z,30.96
2023-06-21T17:37:11.258Z,30.98
2023-06-21T17:39:38.969Z,30.44
2023-06-21T17:42:07.246Z,30.36
2023-06-21T17:44:35.348Z,30.61
2023-06-21T17:47:03.206Z,30.49
2023-06-21T17:49:30.849Z,30.48
2023-06-21T17:51:58.688Z,30.39
2023-06-21T17:54:26.292Z,30.48
2023-06-21T17:56:53.966Z,30.31
2023-06-21T17:59:21.967Z,30.27
2023-06-21T18:01:49.655Z,30.12
2023-06-21T18:04:17.830Z,30.28
2023-06-21T18:06:45.524Z,30.25
2023-06-21T18:09:13.138Z,30.21
2023-06-21T18:11:43.457Z,29.97
2023-06-21T18:14:11.007Z,29.82
2023-06-21T18:16:39.377Z,29.84
2023-06-21T18:19:07.310Z,29.81
2023-06-21T18:21:34.948Z,29.62
2023-06-21T18:24:10.061Z,29.55
2023-06-21T18:26:38.254Z,29.43
2023-06-21T18:29:05.922Z,29.32
2023-06-21T18:31:33.660Z,29.20
2023-06-21T18:34:01.804Z,29.30
2023-06-21T18:36:29.507Z,29.15
2023-06-21T18:38:57.292Z,28.97
2023-06-21T18:41:26.205Z,29.14
2023-06-21T18:43:53.889Z,29.02
2023-06-21T18:46:21.553Z,29.26
2023-06-21T18:48:49.692Z,28.95
2023-06-21T18:51:17.436Z,28.64
2023-06-21T18:53:45.166Z,28.35
2023-06-21T18:56:13.281Z,28.26
2023-06-21T18:58:41.000Z,28.09
2023-06-21T19:01:08.766Z,28.23
2023-06-21T19:03:36.914Z,28.32
2023-06-21T19:06:04.756Z,28.05
2023-06-21T19:08:32.425Z,27.99
2023-06-21T19:11:00.268Z,27.94
2023-06-21T19:13:28.053Z,28.05
2023-06-21T19:15:56.273Z,27.94
2023-06-21T19:18:24.286Z,27.83
2023-06-21T19:20:51.989Z,27.86
2023-06-21T19:23:19.653Z,27.82
2023-06-21T19:25:47.612Z,27.75
2023-06-21T19:28:15.287Z,27.64
2023-06-21T19:30:54.477Z,27.48
2023-06-21T19:33:22.653Z,27.53
2023-06-21T19:35:50.386Z,27.61
2023-06-21T19:38:18.104Z,27.38
2023-06-21T19:40:46.039Z,27.32
2023-06-21T19:43:14.425Z,27.16
2023-06-21T19:45:42.071Z,27.23
2023-06-21T19:48:10.194Z,27.06
2023-06-21T19:50:38.087Z,27.12
2023-06-21T19:53:05.678Z,27.27
2023-06-21T19:55:33.606Z,27.29
2023-06-21T19:58:01.536Z,27.36
2023-06-21T20:00:29.545Z,27.11
2023-06-21T20:02:57.880Z,27.05
2023-06-21T20:05:25.747Z,27.05
2023-06-21T20:07:53.370Z,26.98
2023-06-21T20:10:21.371Z,26.80
2023-06-21T20:12:49.065Z,26.68
2023-06-21T20:15:16.777Z,26.76
2023-06-21T20:17:44.682Z,27.05
2023-06-21T20:20:12.434Z,27.14
2023-06-21T20:22:40.191Z,26.99
2023-06-21T20:25:08.558Z,26.73
2023-06-21T20:27:36.230Z,26.55
2023-06-21T20:30:04.441Z,26.23
2023-06-21T20:32:32.447Z,26.06
2023-06-21T20:35:00.084Z,25.96
2023-06-21T20:37:27.757Z,25.63
2023-06-21T20:39:55.753Z,25.51
2023-06-21T20:42:23.302Z,25.28
2023-06-21T20:44:50.890Z,24.84
2023-06-21T20:47:18.994Z,24.67
2023-06-21T20:49:46.640Z,24.31
2023-06-21T20:52:14.375Z,24.03
2023-06-21T20:54:42.949Z,23.94
2023-06-21T20:57:10.693Z,23.97
2023-06-21T20:59:38.415Z,23.86
2023-06-21T21:02:06.666Z,23.92
2023-06-21T21:04:34.557Z,23.81
2023-06-21T21:07:02.431Z,23.71
2023-06-21T21:09:33.109Z,23.68
2023-06-21T21:12:00.665Z,23.58
2023-06-21T21:14:28.279Z,23.43
2023-06-21T21:16:59.547Z,23.22
2023-06-21T21:19:27.314Z,23.26
2023-06-21T21:21:55.026Z,23.10
2023-06-21T21:24:23.048Z,23.13
2023-06-21T21:26:50.764Z,23.08
2023-06-21T21:29:18.447Z,23.16
2023-06-21T21:31:46.850Z,23.11
2023-06-21T21:34:14.713Z,23.12
2023-06-21T21:36:42.345Z,23.03
2023-06-21T21:39:10.326Z,23.04
2023-06-21T21:41:39.943Z,23.07
2023-06-21T21:44:08.855Z,23.10
2023-06-21T21:46:37.908Z,23.22
2023-06-21T21:49:05.346Z,23.25
2023-06-21T21:51:33.010Z,23.10
2023-06-21T21:54:00.863Z,23.21
2023-06-21T21:56:28.462Z,23.13
2023-06-21T21:58:56.128Z,22.98
2023-06-21T22:01:24.069Z,23.09
2023-06-21T22:03:52.252Z,23.09
2023-06-21T22:06:20.019Z,22.94
2023-06-21T22:08:47.637Z,23.10
2023-06-21T22:11:15.495Z,22.94
2023-06-21T22:13:43.078Z,22.93
2023-06-21T22:16:10.735Z,22.77
2023-06-21T22:18:38.619Z,22.98
2023-06-21T22:21:06.764Z,22.95
2023-06-21T22:23:34.582Z,22.98
2023-06-21T22:26:06.759Z,23.01
2023-06-21T22:28:34.441Z,22.94
2023-06-21T22:31:02.783Z,23.00
2023-06-21T22:33:31.106Z,22.90
2023-06-21T22:35:58.715Z,23.11
2023-06-21T22:38:26.860Z,23.09
2023-06-21T22:40:54.410Z,23.19
2023-06-21T22:43:22.007Z,23.02
2023-06-21T22:45:49.949Z,22.91
2023-06-21T22:48:17.600Z,22.86
2023-06-21T22:50:45.236Z,22.84
2023-06-21T22:53:13.226Z,22.71
2023-06-21T22:55:43.993Z,22.96
2023-06-21T22:58:11.777Z,22.98
2023-06-21T23:00:39.831Z,22.92
2023-06-21T23:03:09.085Z,22.95
2023-06-21T23:05:36.782Z,23.07
2023-06-21T23:08:05.326Z,23.16
2023-06-21T23:10:32.943Z,22.95
2023-06-21T23:13:00.569Z,23.03
2023-06-21T23:15:28.540Z,23.00
2023-06-21T23:17:56.315Z,22.93
2023-06-21T23:20:23.955Z,23.15
2023-06-21T23:22:51.870Z,22.99
2023-06-21T23:25:19.471Z,23.12
2023-06-21T23:27:47.165Z,23.00
2023-06-21T23:32:48.262Z,22.86
2023-06-21T23:35:16.188Z,22.88
2023-06-21T23:37:43.828Z,22.94
2023-06-21T23:40:11.668Z,22.98
2023-06-21T23:42:39.629Z,23.01
2023-06-21T23:45:08.684Z,23.06
2023-06-21T23:47:37.618Z,23.02
2023-06-21T23:50:06.832Z,23.02
2023-06-21T23:52:34.564Z,23.02
2023-06-21T23:55:02.427Z,22.89
2023-06-21T23:57:30.537Z,23.00
2023-06-21T23:59:58.139Z,22.71
